sensor_id;sensor_type;location;lat;lon;timestamp;P1;durP1;ratioP1;P2;durP2;ratioP2
27505;SDS011;14939;43.596;1.320;2023-12-20T00:00:54;26.05;;;19.23;;
27505;SDS011;14939;43.596;1.320;2023-12-20T00:03:19;30.13;;;18.58;;
27505;SDS011;14939;43.596;1.320;2023-12-20T00:05:45;26.20;;;18.75;;
27505;SDS011;14939;43.596;1.320;2023-12-20T00:08:11;26.13;;;18.15;;
27505;SDS011;14939;43.596;1.320;2023-12-20T00:10:37;29.15;;;19.10;;
27505;SDS011;14939;43.596;1.320;2023-12-20T00:13:03;24.75;;;18.02;;
27505;SDS011;14939;43.596;1.320;2023-12-20T00:15:29;24.33;;;17.20;;
27505;SDS011;14939;43.596;1.320;2023-12-20T00:17:54;23.90;;;17.08;;
27505;SDS011;14939;43.596;1.320;2023-12-20T00:20:20;22.25;;;16.58;;
27505;SDS011;14939;43.596;1.320;2023-12-20T00:22:45;23.13;;;16.55;;
27505;SDS011;14939;43.596;1.320;2023-12-20T00:25:11;22.00;;;17.02;;
27505;SDS011;14939;43.596;1.320;2023-12-20T00:27:37;22.70;;;16.95;;
27505;SDS011;14939;43.596;1.320;2023-12-20T00:30:02;25.88;;;17.33;;
27505;SDS011;14939;43.596;1.320;2023-12-20T00:32:28;24.95;;;17.23;;
27505;SDS011;14939;43.596;1.320;2023-12-20T00:34:54;25.50;;;16.67;;
27505;SDS011;14939;43.596;1.320;2023-12-20T00:37:19;22.85;;;16.95;;
27505;SDS011;14939;43.596;1.320;2023-12-20T00:39:45;21.58;;;15.63;;
27505;SDS011;14939;43.596;1.320;2023-12-20T00:42:11;21.67;;;15.65;;
27505;SDS011;14939;43.596;1.320;2023-12-20T00:44:36;20.70;;;16.92;;
27505;SDS011;14939;43.596;1.320;2023-12-20T00:47:02;18.98;;;16.02;;
27505;SDS011;14939;43.596;1.320;2023-12-20T00:49:28;21.63;;;16.25;;
27505;SDS011;14939;43.596;1.320;2023-12-20T00:51:54;24.00;;;17.08;;
27505;SDS011;14939;43.596;1.320;2023-12-20T00:54:19;21.58;;;17.50;;
27505;SDS011;14939;43.596;1.320;2023-12-20T00:56:45;21.95;;;16.75;;
27505;SDS011;14939;43.596;1.320;2023-12-20T00:59:10;21.08;;;16.50;;
27505;SDS011;14939;43.596;1.320;2023-12-20T01:01:36;20.80;;;16.38;;
27505;SDS011;14939;43.596;1.320;2023-12-20T01:04:02;22.88;;;16.98;;
27505;SDS011;14939;43.596;1.320;2023-12-20T01:06:28;20.95;;;16.42;;
27505;SDS011;14939;43.596;1.320;2023-12-20T01:08:54;19.25;;;15.80;;
27505;SDS011;14939;43.596;1.320;2023-12-20T01:11:19;19.02;;;15.23;;
27505;SDS011;14939;43.596;1.320;2023-12-20T01:13:45;18.45;;;15.23;;
27505;SDS011;14939;43.596;1.320;2023-12-20T01:16:10;19.85;;;15.43;;
27505;SDS011;14939;43.596;1.320;2023-12-20T01:18:37;19.73;;;15.65;;
27505;SDS011;14939;43.596;1.320;2023-12-20T01:21:04;18.58;;;15.48;;
27505;SDS011;14939;43.596;1.320;2023-12-20T01:23:30;20.95;;;15.90;;
27505;SDS011;14939;43.596;1.320;2023-12-20T01:25:56;21.85;;;16.77;;
27505;SDS011;14939;43.596;1.320;2023-12-20T01:28:21;20.92;;;15.32;;
27505;SDS011;14939;43.596;1.320;2023-12-20T01:30:47;18.05;;;14.75;;
27505;SDS011;14939;43.596;1.320;2023-12-20T01:33:13;20.92;;;14.85;;
27505;SDS011;14939;43.596;1.320;2023-12-20T01:35:38;20.05;;;15.20;;
27505;SDS011;14939;43.596;1.320;2023-12-20T01:38:04;16.17;;;14.13;;
27505;SDS011;14939;43.596;1.320;2023-12-20T01:40:30;19.08;;;14.25;;
27505;SDS011;14939;43.596;1.320;2023-12-20T01:42:59;17.95;;;14.25;;
27505;SDS011;14939;43.596;1.320;2023-12-20T01:45:25;17.60;;;13.27;;
27505;SDS011;14939;43.596;1.320;2023-12-20T01:47:51;17.67;;;12.85;;
27505;SDS011;14939;43.596;1.320;2023-12-20T01:50:17;18.75;;;12.30;;
27505;SDS011;14939;43.596;1.320;2023-12-20T01:52:43;16.63;;;12.18;;
27505;SDS011;14939;43.596;1.320;2023-12-20T01:55:10;15.25;;;12.15;;
27505;SDS011;14939;43.596;1.320;2023-12-20T01:57:41;14.18;;;11.82;;
27505;SDS011;14939;43.596;1.320;2023-12-20T02:00:08;14.38;;;11.45;;
27505;SDS011;14939;43.596;1.320;2023-12-20T02:02:36;16.35;;;11.48;;
27505;SDS011;14939;43.596;1.320;2023-12-20T02:05:05;14.45;;;11.57;;
27505;SDS011;14939;43.596;1.320;2023-12-20T02:07:31;15.27;;;11.60;;
27505;SDS011;14939;43.596;1.320;2023-12-20T02:09:57;14.90;;;11.45;;
27505;SDS011;14939;43.596;1.320;2023-12-20T02:12:22;14.35;;;11.55;;
27505;SDS011;14939;43.596;1.320;2023-12-20T02:14:48;15.32;;;11.00;;
27505;SDS011;14939;43.596;1.320;2023-12-20T02:17:15;16.42;;;11.40;;
27505;SDS011;14939;43.596;1.320;2023-12-20T02:19:41;12.80;;;10.85;;
27505;SDS011;14939;43.596;1.320;2023-12-20T02:22:10;12.48;;;10.43;;
27505;SDS011;14939;43.596;1.320;2023-12-20T02:24:36;11.95;;;10.25;;
27505;SDS011;14939;43.596;1.320;2023-12-20T02:27:02;13.70;;;10.95;;
27505;SDS011;14939;43.596;1.320;2023-12-20T02:29:29;12.52;;;10.60;;
27505;SDS011;14939;43.596;1.320;2023-12-20T02:31:55;15.60;;;10.77;;
27505;SDS011;14939;43.596;1.320;2023-12-20T02:34:21;14.80;;;11.80;;
27505;SDS011;14939;43.596;1.320;2023-12-20T02:36:47;15.65;;;11.95;;
27505;SDS011;14939;43.596;1.320;2023-12-20T02:39:12;15.00;;;11.82;;
27505;SDS011;14939;43.596;1.320;2023-12-20T02:41:38;17.33;;;13.15;;
27505;SDS011;14939;43.596;1.320;2023-12-20T02:44:03;19.08;;;14.27;;
27505;SDS011;14939;43.596;1.320;2023-12-20T02:46:29;13.77;;;10.93;;
27505;SDS011;14939;43.596;1.320;2023-12-20T02:48:55;18.98;;;12.00;;
27505;SDS011;14939;43.596;1.320;2023-12-20T02:51:20;14.63;;;13.00;;
27505;SDS011;14939;43.596;1.320;2023-12-20T02:53:46;17.45;;;13.93;;
27505;SDS011;14939;43.596;1.320;2023-12-20T02:56:11;21.13;;;14.32;;
27505;SDS011;14939;43.596;1.320;2023-12-20T02:58:38;18.02;;;12.52;;
27505;SDS011;14939;43.596;1.320;2023-12-20T03:01:04;23.70;;;16.70;;
27505;SDS011;14939;43.596;1.320;2023-12-20T03:03:29;16.67;;;14.27;;
27505;SDS011;14939;43.596;1.320;2023-12-20T03:05:55;28.17;;;20.98;;
27505;SDS011;14939;43.596;1.320;2023-12-20T03:08:20;19.70;;;13.52;;
27505;SDS011;14939;43.596;1.320;2023-12-20T03:10:46;18.23;;;13.38;;
27505;SDS011;14939;43.596;1.320;2023-12-20T03:13:12;17.85;;;13.57;;
27505;SDS011;14939;43.596;1.320;2023-12-20T03:15:37;15.70;;;13.35;;
27505;SDS011;14939;43.596;1.320;2023-12-20T03:18:03;14.10;;;11.85;;
27505;SDS011;14939;43.596;1.320;2023-12-20T03:20:29;20.95;;;13.98;;
27505;SDS011;14939;43.596;1.320;2023-12-20T03:22:58;20.63;;;14.38;;
27505;SDS011;14939;43.596;1.320;2023-12-20T03:25:23;20.17;;;14.85;;
27505;SDS011;14939;43.596;1.320;2023-12-20T03:27:49;18.95;;;14.43;;
27505;SDS011;14939;43.596;1.320;2023-12-20T03:30:15;18.40;;;14.45;;
27505;SDS011;14939;43.596;1.320;2023-12-20T03:32:40;18.90;;;15.10;;
27505;SDS011;14939;43.596;1.320;2023-12-20T03:35:06;19.88;;;15.20;;
27505;SDS011;14939;43.596;1.320;2023-12-20T03:37:32;20.05;;;16.33;;
27505;SDS011;14939;43.596;1.320;2023-12-20T03:39:57;19.90;;;15.82;;
27505;SDS011;14939;43.596;1.320;2023-12-20T03:42:23;21.48;;;15.77;;
27505;SDS011;14939;43.596;1.320;2023-12-20T03:44:48;22.58;;;16.63;;
27505;SDS011;14939;43.596;1.320;2023-12-20T03:47:14;26.27;;;17.65;;
27505;SDS011;14939;43.596;1.320;2023-12-20T03:49:39;22.85;;;17.38;;
27505;SDS011;14939;43.596;1.320;2023-12-20T03:52:05;26.35;;;18.60;;
27505;SDS011;14939;43.596;1.320;2023-12-20T03:54:31;24.02;;;17.98;;
27505;SDS011;14939;43.596;1.320;2023-12-20T03:56:56;26.75;;;19.55;;
27505;SDS011;14939;43.596;1.320;2023-12-20T03:59:22;26.48;;;18.50;;
27505;SDS011;14939;43.596;1.320;2023-12-20T04:01:47;25.63;;;18.58;;
27505;SDS011;14939;43.596;1.320;2023-12-20T04:04:13;25.98;;;18.65;;
27505;SDS011;14939;43.596;1.320;2023-12-20T04:06:39;29.88;;;21.55;;
27505;SDS011;14939;43.596;1.320;2023-12-20T04:09:05;30.67;;;21.92;;
27505;SDS011;14939;43.596;1.320;2023-12-20T04:11:30;25.65;;;19.38;;
27505;SDS011;14939;43.596;1.320;2023-12-20T04:13:56;25.15;;;19.55;;
27505;SDS011;14939;43.596;1.320;2023-12-20T04:16:22;25.15;;;18.98;;
27505;SDS011;14939;43.596;1.320;2023-12-20T04:18:47;25.42;;;20.15;;
27505;SDS011;14939;43.596;1.320;2023-12-20T04:21:13;27.67;;;18.67;;
27505;SDS011;14939;43.596;1.320;2023-12-20T04:23:38;24.02;;;17.42;;
27505;SDS011;14939;43.596;1.320;2023-12-20T04:26:04;23.92;;;17.95;;
27505;SDS011;14939;43.596;1.320;2023-12-20T04:28:30;24.33;;;17.52;;
27505;SDS011;14939;43.596;1.320;2023-12-20T04:30:56;24.92;;;16.77;;
27505;SDS011;14939;43.596;1.320;2023-12-20T04:33:21;24.60;;;17.13;;
27505;SDS011;14939;43.596;1.320;2023-12-20T04:35:47;20.75;;;16.33;;
27505;SDS011;14939;43.596;1.320;2023-12-20T04:38:13;20.40;;;15.48;;
27505;SDS011;14939;43.596;1.320;2023-12-20T04:40:39;19.13;;;14.77;;
27505;SDS011;14939;43.596;1.320;2023-12-20T04:43:06;18.45;;;14.18;;
27505;SDS011;14939;43.596;1.320;2023-12-20T04:45:32;19.00;;;14.00;;
27505;SDS011;14939;43.596;1.320;2023-12-20T04:47:58;20.67;;;13.10;;
27505;SDS011;14939;43.596;1.320;2023-12-20T04:50:24;16.23;;;13.13;;
27505;SDS011;14939;43.596;1.320;2023-12-20T04:52:49;19.92;;;13.48;;
27505;SDS011;14939;43.596;1.320;2023-12-20T04:55:15;16.98;;;12.82;;
27505;SDS011;14939;43.596;1.320;2023-12-20T04:57:41;16.35;;;13.07;;
27505;SDS011;14939;43.596;1.320;2023-12-20T05:00:08;16.65;;;12.90;;
27505;SDS011;14939;43.596;1.320;2023-12-20T05:02:34;18.38;;;13.32;;
27505;SDS011;14939;43.596;1.320;2023-12-20T05:05:00;17.20;;;11.95;;
27505;SDS011;14939;43.596;1.320;2023-12-20T05:07:26;15.55;;;11.20;;
27505;SDS011;14939;43.596;1.320;2023-12-20T05:09:52;13.90;;;10.60;;
27505;SDS011;14939;43.596;1.320;2023-12-20T05:12:18;15.10;;;12.10;;
27505;SDS011;14939;43.596;1.320;2023-12-20T05:14:44;15.45;;;11.57;;
27505;SDS011;14939;43.596;1.320;2023-12-20T05:17:09;14.07;;;11.05;;
27505;SDS011;14939;43.596;1.320;2023-12-20T05:19:35;14.80;;;10.43;;
27505;SDS011;14939;43.596;1.320;2023-12-20T05:22:01;13.30;;;10.38;;
27505;SDS011;14939;43.596;1.320;2023-12-20T05:24:27;13.50;;;9.88;;
27505;SDS011;14939;43.596;1.320;2023-12-20T05:26:53;15.73;;;10.18;;
27505;SDS011;14939;43.596;1.320;2023-12-20T05:29:18;13.82;;;9.52;;
27505;SDS011;14939;43.596;1.320;2023-12-20T05:31:44;12.93;;;9.88;;
27505;SDS011;14939;43.596;1.320;2023-12-20T05:34:10;12.75;;;9.13;;
27505;SDS011;14939;43.596;1.320;2023-12-20T05:36:35;12.93;;;9.45;;
27505;SDS011;14939;43.596;1.320;2023-12-20T05:39:02;13.13;;;9.23;;
27505;SDS011;14939;43.596;1.320;2023-12-20T05:41:29;12.80;;;9.45;;
27505;SDS011;14939;43.596;1.320;2023-12-20T05:43:55;13.77;;;10.02;;
27505;SDS011;14939;43.596;1.320;2023-12-20T05:46:22;16.52;;;10.40;;
27505;SDS011;14939;43.596;1.320;2023-12-20T05:48:48;14.63;;;10.27;;
27505;SDS011;14939;43.596;1.320;2023-12-20T05:51:14;15.60;;;9.93;;
27505;SDS011;14939;43.596;1.320;2023-12-20T05:53:40;16.70;;;10.80;;
27505;SDS011;14939;43.596;1.320;2023-12-20T05:56:06;14.40;;;9.98;;
27505;SDS011;14939;43.596;1.320;2023-12-20T05:58:33;17.25;;;10.57;;
27505;SDS011;14939;43.596;1.320;2023-12-20T06:00:59;14.70;;;10.13;;
27505;SDS011;14939;43.596;1.320;2023-12-20T06:03:24;14.10;;;9.20;;
27505;SDS011;14939;43.596;1.320;2023-12-20T06:05:50;15.27;;;10.48;;
27505;SDS011;14939;43.596;1.320;2023-12-20T06:08:15;12.90;;;8.70;;
27505;SDS011;14939;43.596;1.320;2023-12-20T06:10:41;14.52;;;8.93;;
27505;SDS011;14939;43.596;1.320;2023-12-20T06:13:06;14.32;;;9.70;;
27505;SDS011;14939;43.596;1.320;2023-12-20T06:15:32;17.58;;;11.30;;
27505;SDS011;14939;43.596;1.320;2023-12-20T06:17:58;14.65;;;9.15;;
27505;SDS011;14939;43.596;1.320;2023-12-20T06:20:24;14.98;;;9.23;;
27505;SDS011;14939;43.596;1.320;2023-12-20T06:22:50;15.35;;;9.43;;
27505;SDS011;14939;43.596;1.320;2023-12-20T06:25:16;17.20;;;10.65;;
27505;SDS011;14939;43.596;1.320;2023-12-20T06:27:41;15.95;;;10.02;;
27505;SDS011;14939;43.596;1.320;2023-12-20T06:30:07;16.40;;;10.40;;
27505;SDS011;14939;43.596;1.320;2023-12-20T06:32:36;13.40;;;8.88;;
27505;SDS011;14939;43.596;1.320;2023-12-20T06:35:03;12.40;;;8.70;;
27505;SDS011;14939;43.596;1.320;2023-12-20T06:37:30;11.75;;;7.90;;
27505;SDS011;14939;43.596;1.320;2023-12-20T06:39:55;12.90;;;8.20;;
27505;SDS011;14939;43.596;1.320;2023-12-20T06:42:22;17.08;;;11.20;;
27505;SDS011;14939;43.596;1.320;2023-12-20T06:44:47;16.17;;;10.57;;
27505;SDS011;14939;43.596;1.320;2023-12-20T06:47:13;15.18;;;9.82;;
27505;SDS011;14939;43.596;1.320;2023-12-20T06:49:39;19.27;;;10.93;;
27505;SDS011;14939;43.596;1.320;2023-12-20T06:52:05;17.35;;;9.93;;
27505;SDS011;14939;43.596;1.320;2023-12-20T06:54:31;13.50;;;9.00;;
27505;SDS011;14939;43.596;1.320;2023-12-20T06:56:59;12.52;;;8.43;;
27505;SDS011;14939;43.596;1.320;2023-12-20T06:59:25;8.63;;;5.82;;
27505;SDS011;14939;43.596;1.320;2023-12-20T07:01:51;8.98;;;6.13;;
27505;SDS011;14939;43.596;1.320;2023-12-20T07:04:17;6.97;;;5.20;;
27505;SDS011;14939;43.596;1.320;2023-12-20T07:06:47;11.60;;;6.88;;
27505;SDS011;14939;43.596;1.320;2023-12-20T07:09:13;9.40;;;6.10;;
27505;SDS011;14939;43.596;1.320;2023-12-20T07:11:39;7.20;;;5.40;;
27505;SDS011;14939;43.596;1.320;2023-12-20T07:14:05;8.23;;;6.25;;
27505;SDS011;14939;43.596;1.320;2023-12-20T07:16:30;9.45;;;6.32;;
27505;SDS011;14939;43.596;1.320;2023-12-20T07:18:56;10.23;;;7.35;;
27505;SDS011;14939;43.596;1.320;2023-12-20T07:21:22;14.90;;;8.55;;
27505;SDS011;14939;43.596;1.320;2023-12-20T07:23:48;8.07;;;5.90;;
27505;SDS011;14939;43.596;1.320;2023-12-20T07:26:14;11.13;;;6.82;;
27505;SDS011;14939;43.596;1.320;2023-12-20T07:28:40;9.65;;;7.38;;
27505;SDS011;14939;43.596;1.320;2023-12-20T07:31:06;9.30;;;6.45;;
27505;SDS011;14939;43.596;1.320;2023-12-20T07:33:31;9.52;;;6.80;;
27505;SDS011;14939;43.596;1.320;2023-12-20T07:35:58;9.18;;;6.70;;
27505;SDS011;14939;43.596;1.320;2023-12-20T07:38:24;8.48;;;6.47;;
27505;SDS011;14939;43.596;1.320;2023-12-20T07:40:50;8.85;;;6.57;;
27505;SDS011;14939;43.596;1.320;2023-12-20T07:43:15;7.18;;;5.90;;
27505;SDS011;14939;43.596;1.320;2023-12-20T07:45:41;6.30;;;4.72;;
27505;SDS011;14939;43.596;1.320;2023-12-20T07:48:07;6.45;;;4.03;;
27505;SDS011;14939;43.596;1.320;2023-12-20T07:50:33;6.03;;;5.13;;
27505;SDS011;14939;43.596;1.320;2023-12-20T07:52:59;7.22;;;5.90;;
27505;SDS011;14939;43.596;1.320;2023-12-20T07:55:26;8.07;;;6.10;;
27505;SDS011;14939;43.596;1.320;2023-12-20T07:57:51;7.60;;;6.57;;
27505;SDS011;14939;43.596;1.320;2023-12-20T08:00:17;7.57;;;5.72;;
27505;SDS011;14939;43.596;1.320;2023-12-20T08:02:44;7.85;;;6.50;;
27505;SDS011;14939;43.596;1.320;2023-12-20T08:05:10;7.38;;;5.68;;
27505;SDS011;14939;43.596;1.320;2023-12-20T08:07:35;8.27;;;6.40;;
27505;SDS011;14939;43.596;1.320;2023-12-20T08:10:01;7.95;;;6.65;;
27505;SDS011;14939;43.596;1.320;2023-12-20T08:12:27;7.47;;;6.15;;
27505;SDS011;14939;43.596;1.320;2023-12-20T08:14:53;8.10;;;6.30;;
27505;SDS011;14939;43.596;1.320;2023-12-20T08:17:19;7.53;;;6.22;;
27505;SDS011;14939;43.596;1.320;2023-12-20T08:19:45;8.65;;;6.18;;
27505;SDS011;14939;43.596;1.320;2023-12-20T08:22:10;7.03;;;5.90;;
27505;SDS011;14939;43.596;1.320;2023-12-20T08:24:36;9.70;;;6.30;;
27505;SDS011;14939;43.596;1.320;2023-12-20T08:27:03;8.50;;;6.38;;
27505;SDS011;14939;43.596;1.320;2023-12-20T08:29:29;11.73;;;8.23;;
27505;SDS011;14939;43.596;1.320;2023-12-20T08:31:55;11.88;;;8.20;;
27505;SDS011;14939;43.596;1.320;2023-12-20T08:34:21;9.93;;;7.63;;
27505;SDS011;14939;43.596;1.320;2023-12-20T08:36:48;10.43;;;8.50;;
27505;SDS011;14939;43.596;1.320;2023-12-20T08:39:16;13.30;;;9.23;;
27505;SDS011;14939;43.596;1.320;2023-12-20T08:41:41;12.40;;;8.32;;
27505;SDS011;14939;43.596;1.320;2023-12-20T08:44:07;11.63;;;8.70;;
27505;SDS011;14939;43.596;1.320;2023-12-20T08:46:34;12.77;;;9.10;;
27505;SDS011;14939;43.596;1.320;2023-12-20T08:49:00;14.10;;;8.98;;
27505;SDS011;14939;43.596;1.320;2023-12-20T08:51:26;24.30;;;12.63;;
27505;SDS011;14939;43.596;1.320;2023-12-20T08:53:52;11.95;;;8.48;;
27505;SDS011;14939;43.596;1.320;2023-12-20T08:56:18;14.10;;;8.77;;
27505;SDS011;14939;43.596;1.320;2023-12-20T08:58:45;13.02;;;9.02;;
27505;SDS011;14939;43.596;1.320;2023-12-20T09:01:11;12.13;;;7.80;;
27505;SDS011;14939;43.596;1.320;2023-12-20T09:03:36;8.70;;;7.03;;
27505;SDS011;14939;43.596;1.320;2023-12-20T09:06:02;10.45;;;7.57;;
27505;SDS011;14939;43.596;1.320;2023-12-20T09:08:28;11.00;;;6.60;;
27505;SDS011;14939;43.596;1.320;2023-12-20T09:10:54;9.00;;;6.00;;
27505;SDS011;14939;43.596;1.320;2023-12-20T09:13:19;8.55;;;5.70;;
27505;SDS011;14939;43.596;1.320;2023-12-20T09:15:47;11.82;;;7.60;;
27505;SDS011;14939;43.596;1.320;2023-12-20T09:18:12;11.07;;;6.22;;
27505;SDS011;14939;43.596;1.320;2023-12-20T09:20:38;9.50;;;6.15;;
27505;SDS011;14939;43.596;1.320;2023-12-20T09:23:03;8.05;;;5.20;;
27505;SDS011;14939;43.596;1.320;2023-12-20T09:25:29;6.63;;;3.20;;
27505;SDS011;14939;43.596;1.320;2023-12-20T09:27:55;7.55;;;4.45;;
27505;SDS011;14939;43.596;1.320;2023-12-20T09:30:20;7.30;;;4.78;;
27505;SDS011;14939;43.596;1.320;2023-12-20T09:32:46;5.88;;;3.35;;
27505;SDS011;14939;43.596;1.320;2023-12-20T09:35:11;6.68;;;2.90;;
27505;SDS011;14939;43.596;1.320;2023-12-20T09:37:37;5.88;;;4.82;;
27505;SDS011;14939;43.596;1.320;2023-12-20T09:40:03;5.35;;;3.90;;
27505;SDS011;14939;43.596;1.320;2023-12-20T09:42:53;6.40;;;5.22;;
27505;SDS011;14939;43.596;1.320;2023-12-20T09:45:22;6.35;;;3.15;;
27505;SDS011;14939;43.596;1.320;2023-12-20T09:47:49;6.18;;;4.55;;
27505;SDS011;14939;43.596;1.320;2023-12-20T09:50:18;6.00;;;3.40;;
27505;SDS011;14939;43.596;1.320;2023-12-20T09:52:45;8.52;;;6.15;;
27505;SDS011;14939;43.596;1.320;2023-12-20T09:55:15;8.30;;;5.32;;
27505;SDS011;14939;43.596;1.320;2023-12-20T09:57:42;10.52;;;6.60;;
27505;SDS011;14939;43.596;1.320;2023-12-20T10:00:08;7.53;;;6.68;;
27505;SDS011;14939;43.596;1.320;2023-12-20T10:02:34;5.85;;;3.13;;
27505;SDS011;14939;43.596;1.320;2023-12-20T10:05:03;8.00;;;3.10;;
27505;SDS011;14939;43.596;1.320;2023-12-20T10:07:34;7.10;;;2.90;;
27505;SDS011;14939;43.596;1.320;2023-12-20T10:10:00;5.30;;;2.80;;
27505;SDS011;14939;43.596;1.320;2023-12-20T10:12:27;8.75;;;3.50;;
27505;SDS011;14939;43.596;1.320;2023-12-20T10:14:53;6.65;;;3.70;;
27505;SDS011;14939;43.596;1.320;2023-12-20T10:17:18;4.70;;;3.15;;
27505;SDS011;14939;43.596;1.320;2023-12-20T10:19:46;7.97;;;3.88;;
27505;SDS011;14939;43.596;1.320;2023-12-20T10:22:12;5.18;;;2.70;;
27505;SDS011;14939;43.596;1.320;2023-12-20T10:24:37;6.45;;;4.40;;
27505;SDS011;14939;43.596;1.320;2023-12-20T10:27:05;6.55;;;2.95;;
27505;SDS011;14939;43.596;1.320;2023-12-20T10:29:40;3.58;;;2.38;;
27505;SDS011;14939;43.596;1.320;2023-12-20T10:32:22;6.43;;;2.97;;
27505;SDS011;14939;43.596;1.320;2023-12-20T10:34:52;8.35;;;3.40;;
27505;SDS011;14939;43.596;1.320;2023-12-20T10:37:18;3.78;;;2.83;;
27505;SDS011;14939;43.596;1.320;2023-12-20T10:39:46;8.65;;;4.55;;
27505;SDS011;14939;43.596;1.320;2023-12-20T10:42:16;8.50;;;3.57;;
27505;SDS011;14939;43.596;1.320;2023-12-20T10:44:42;8.50;;;3.53;;
27505;SDS011;14939;43.596;1.320;2023-12-20T10:47:08;5.63;;;3.10;;
27505;SDS011;14939;43.596;1.320;2023-12-20T10:49:36;6.13;;;3.30;;
27505;SDS011;14939;43.596;1.320;2023-12-20T10:52:04;4.70;;;3.33;;
27505;SDS011;14939;43.596;1.320;2023-12-20T10:54:31;6.10;;;2.97;;
27505;SDS011;14939;43.596;1.320;2023-12-20T10:56:58;4.10;;;2.35;;
27505;SDS011;14939;43.596;1.320;2023-12-20T10:59:24;6.00;;;2.55;;
27505;SDS011;14939;43.596;1.320;2023-12-20T11:01:52;5.30;;;1.95;;
27505;SDS011;14939;43.596;1.320;2023-12-20T11:04:28;6.20;;;2.10;;
27505;SDS011;14939;43.596;1.320;2023-12-20T11:07:21;6.90;;;1.95;;
27505;SDS011;14939;43.596;1.320;2023-12-20T11:09:58;6.03;;;2.17;;
27505;SDS011;14939;43.596;1.320;2023-12-20T11:12:32;6.68;;;2.30;;
27505;SDS011;14939;43.596;1.320;2023-12-20T11:15:06;6.40;;;1.92;;
27505;SDS011;14939;43.596;1.320;2023-12-20T11:17:32;9.50;;;2.47;;
27505;SDS011;14939;43.596;1.320;2023-12-20T11:22:29;6.70;;;2.67;;
27505;SDS011;14939;43.596;1.320;2023-12-20T11:25:08;8.70;;;1.88;;
27505;SDS011;14939;43.596;1.320;2023-12-20T11:27:36;8.77;;;2.00;;
27505;SDS011;14939;43.596;1.320;2023-12-20T11:30:05;5.70;;;2.25;;
27505;SDS011;14939;43.596;1.320;2023-12-20T11:32:32;7.80;;;2.08;;
27505;SDS011;14939;43.596;1.320;2023-12-20T11:35:20;6.10;;;2.10;;
27505;SDS011;14939;43.596;1.320;2023-12-20T11:37:45;5.80;;;2.00;;
27505;SDS011;14939;43.596;1.320;2023-12-20T11:40:15;7.78;;;2.00;;
27505;SDS011;14939;43.596;1.320;2023-12-20T11:42:43;9.13;;;2.05;;
27505;SDS011;14939;43.596;1.320;2023-12-20T11:45:16;8.00;;;2.00;;
27505;SDS011;14939;43.596;1.320;2023-12-20T11:47:48;5.35;;;1.88;;
27505;SDS011;14939;43.596;1.320;2023-12-20T11:50:15;7.65;;;2.03;;
27505;SDS011;14939;43.596;1.320;2023-12-20T11:52:44;4.80;;;1.50;;
27505;SDS011;14939;43.596;1.320;2023-12-20T11:55:10;5.53;;;1.25;;
27505;SDS011;14939;43.596;1.320;2023-12-20T11:57:36;4.80;;;1.67;;
27505;SDS011;14939;43.596;1.320;2023-12-20T12:00:03;7.38;;;2.05;;
27505;SDS011;14939;43.596;1.320;2023-12-20T12:02:29;6.18;;;1.63;;
27505;SDS011;14939;43.596;1.320;2023-12-20T12:04:55;8.15;;;2.08;;
27505;SDS011;14939;43.596;1.320;2023-12-20T12:07:21;7.47;;;1.75;;
27505;SDS011;14939;43.596;1.320;2023-12-20T12:09:47;4.25;;;1.60;;
27505;SDS011;14939;43.596;1.320;2023-12-20T12:12:13;4.22;;;1.50;;
27505;SDS011;14939;43.596;1.320;2023-12-20T12:14:40;4.88;;;1.73;;
27505;SDS011;14939;43.596;1.320;2023-12-20T12:17:12;6.38;;;1.63;;
27505;SDS011;14939;43.596;1.320;2023-12-20T12:19:38;4.85;;;1.48;;
27505;SDS011;14939;43.596;1.320;2023-12-20T12:22:05;5.20;;;1.33;;
27505;SDS011;14939;43.596;1.320;2023-12-20T12:24:37;4.03;;;1.15;;
27505;SDS011;14939;43.596;1.320;2023-12-20T12:27:06;13.90;;;1.60;;
27505;SDS011;14939;43.596;1.320;2023-12-20T12:29:33;6.50;;;1.65;;
27505;SDS011;14939;43.596;1.320;2023-12-20T12:31:59;7.78;;;1.70;;
27505;SDS011;14939;43.596;1.320;2023-12-20T12:34:27;5.30;;;1.70;;
27505;SDS011;14939;43.596;1.320;2023-12-20T12:36:53;3.83;;;1.30;;
27505;SDS011;14939;43.596;1.320;2023-12-20T12:39:19;7.18;;;1.73;;
27505;SDS011;14939;43.596;1.320;2023-12-20T12:41:45;5.05;;;1.77;;
27505;SDS011;14939;43.596;1.320;2023-12-20T12:44:11;6.75;;;1.50;;
27505;SDS011;14939;43.596;1.320;2023-12-20T12:46:36;8.70;;;1.80;;
27505;SDS011;14939;43.596;1.320;2023-12-20T12:49:02;5.10;;;1.80;;
27505;SDS011;14939;43.596;1.320;2023-12-20T12:51:28;6.78;;;2.08;;
27505;SDS011;14939;43.596;1.320;2023-12-20T12:53:53;6.85;;;1.67;;
27505;SDS011;14939;43.596;1.320;2023-12-20T12:56:19;6.50;;;1.60;;
27505;SDS011;14939;43.596;1.320;2023-12-20T12:58:44;6.50;;;1.63;;
27505;SDS011;14939;43.596;1.320;2023-12-20T13:01:10;6.00;;;1.75;;
27505;SDS011;14939;43.596;1.320;2023-12-20T13:03:36;5.05;;;1.42;;
27505;SDS011;14939;43.596;1.320;2023-12-20T13:06:02;6.32;;;1.63;;
27505;SDS011;14939;43.596;1.320;2023-12-20T13:08:28;4.47;;;1.20;;
27505;SDS011;14939;43.596;1.320;2023-12-20T13:10:54;6.43;;;1.80;;
27505;SDS011;14939;43.596;1.320;2023-12-20T13:13:20;7.60;;;1.60;;
27505;SDS011;14939;43.596;1.320;2023-12-20T13:15:46;7.38;;;1.85;;
27505;SDS011;14939;43.596;1.320;2023-12-20T13:18:16;7.85;;;1.67;;
27505;SDS011;14939;43.596;1.320;2023-12-20T13:20:43;6.45;;;1.52;;
27505;SDS011;14939;43.596;1.320;2023-12-20T13:23:09;3.92;;;1.30;;
27505;SDS011;14939;43.596;1.320;2023-12-20T13:25:35;10.02;;;1.63;;
27505;SDS011;14939;43.596;1.320;2023-12-20T13:28:01;7.32;;;1.83;;
27505;SDS011;14939;43.596;1.320;2023-12-20T13:30:27;7.70;;;1.77;;
27505;SDS011;14939;43.596;1.320;2023-12-20T13:32:53;8.52;;;1.67;;
27505;SDS011;14939;43.596;1.320;2023-12-20T13:35:19;8.00;;;1.50;;
27505;SDS011;14939;43.596;1.320;2023-12-20T13:37:45;10.13;;;1.77;;
27505;SDS011;14939;43.596;1.320;2023-12-20T13:40:11;5.18;;;1.58;;
27505;SDS011;14939;43.596;1.320;2023-12-20T13:42:37;8.70;;;1.98;;
27505;SDS011;14939;43.596;1.320;2023-12-20T13:45:06;6.50;;;1.35;;
27505;SDS011;14939;43.596;1.320;2023-12-20T13:47:32;6.38;;;1.52;;
27505;SDS011;14939;43.596;1.320;2023-12-20T13:49:58;8.95;;;1.75;;
27505;SDS011;14939;43.596;1.320;2023-12-20T13:52:24;11.40;;;1.98;;
27505;SDS011;14939;43.596;1.320;2023-12-20T13:54:49;10.93;;;1.80;;
27505;SDS011;14939;43.596;1.320;2023-12-20T13:57:15;6.55;;;1.42;;
27505;SDS011;14939;43.596;1.320;2023-12-20T13:59:41;7.85;;;1.73;;
27505;SDS011;14939;43.596;1.320;2023-12-20T14:02:06;5.05;;;1.40;;
27505;SDS011;14939;43.596;1.320;2023-12-20T14:04:32;8.98;;;1.55;;
27505;SDS011;14939;43.596;1.320;2023-12-20T14:06:58;5.72;;;1.35;;
27505;SDS011;14939;43.596;1.320;2023-12-20T14:09:23;9.93;;;1.80;;
27505;SDS011;14939;43.596;1.320;2023-12-20T14:11:49;7.40;;;1.95;;
27505;SDS011;14939;43.596;1.320;2023-12-20T14:14:15;6.95;;;1.70;;
27505;SDS011;14939;43.596;1.320;2023-12-20T14:16:41;12.82;;;2.30;;
27505;SDS011;14939;43.596;1.320;2023-12-20T14:19:10;9.75;;;1.92;;
27505;SDS011;14939;43.596;1.320;2023-12-20T14:21:36;11.75;;;5.20;;
27505;SDS011;14939;43.596;1.320;2023-12-20T14:24:01;10.88;;;3.80;;
27505;SDS011;14939;43.596;1.320;2023-12-20T14:26:28;9.18;;;2.15;;
27505;SDS011;14939;43.596;1.320;2023-12-20T14:28:54;8.82;;;2.20;;
27505;SDS011;14939;43.596;1.320;2023-12-20T14:31:20;6.07;;;2.13;;
27505;SDS011;14939;43.596;1.320;2023-12-20T14:33:48;5.63;;;1.70;;